sensor_id;sensor_type;location;lat;lon;timestamp;P1;durP1;ratioP1;P2;durP2;ratioP2
69529;SDS011;56727;47.188;8.840;2023-02-03T00:02:01;5.10;;;0.90;;
69529;SDS011;56727;47.188;8.840;2023-02-03T00:04:27;3.80;;;0.60;;
69529;SDS011;56727;47.188;8.840;2023-02-03T00:06:55;2.30;;;0.60;;
69529;SDS011;56727;47.188;8.840;2023-02-03T00:09:22;4.60;;;0.80;;
69529;SDS011;56727;47.188;8.840;2023-02-03T00:11:48;4.00;;;0.70;;
69529;SDS011;56727;47.188;8.840;2023-02-03T00:14:15;3.50;;;0.60;;
69529;SDS011;56727;47.188;8.840;2023-02-03T00:16:42;6.50;;;1.10;;
69529;SDS011;56727;47.188;8.840;2023-02-03T00:19:09;6.30;;;0.60;;
69529;SDS011;56727;47.188;8.840;2023-02-03T00:21:35;3.50;;;0.50;;
69529;SDS011;56727;47.188;8.840;2023-02-03T00:24:02;4.50;;;0.70;;
69529;SDS011;56727;47.188;8.840;2023-02-03T00:26:29;5.30;;;1.00;;
69529;SDS011;56727;47.188;8.840;2023-02-03T00:28:58;4.90;;;0.70;;
69529;SDS011;56727;47.188;8.840;2023-02-03T00:31:25;4.60;;;0.50;;
69529;SDS011;56727;47.188;8.840;2023-02-03T00:33:56;3.80;;;0.50;;
69529;SDS011;56727;47.188;8.840;2023-02-03T00:36:24;5.80;;;0.50;;
69529;SDS011;56727;47.188;8.840;2023-02-03T00:38:52;4.00;;;0.50;;
69529;SDS011;56727;47.188;8.840;2023-02-03T00:41:20;4.70;;;0.50;;
69529;SDS011;56727;47.188;8.840;2023-02-03T00:43:47;3.20;;;0.30;;
69529;SDS011;56727;47.188;8.840;2023-02-03T00:46:14;4.10;;;0.40;;
69529;SDS011;56727;47.188;8.840;2023-02-03T00:48:41;4.80;;;0.50;;
69529;SDS011;56727;47.188;8.840;2023-02-03T00:51:08;4.90;;;0.60;;
69529;SDS011;56727;47.188;8.840;2023-02-03T00:53:34;3.40;;;0.30;;
69529;SDS011;56727;47.188;8.840;2023-02-03T00:56:01;3.60;;;0.30;;
69529;SDS011;56727;47.188;8.840;2023-02-03T00:58:28;3.50;;;0.30;;
69529;SDS011;56727;47.188;8.840;2023-02-03T01:00:55;3.50;;;0.50;;
69529;SDS011;56727;47.188;8.840;2023-02-03T01:03:22;5.00;;;0.50;;
69529;SDS011;56727;47.188;8.840;2023-02-03T01:05:49;3.10;;;0.30;;
69529;SDS011;56727;47.188;8.840;2023-02-03T01:08:16;2.80;;;0.30;;
69529;SDS011;56727;47.188;8.840;2023-02-03T01:10:42;4.60;;;0.30;;
69529;SDS011;56727;47.188;8.840;2023-02-03T01:13:09;5.50;;;0.50;;
69529;SDS011;56727;47.188;8.840;2023-02-03T01:15:35;4.70;;;0.80;;
69529;SDS011;56727;47.188;8.840;2023-02-03T01:18:02;3.30;;;0.40;;
69529;SDS011;56727;47.188;8.840;2023-02-03T01:20:29;5.00;;;0.30;;
69529;SDS011;56727;47.188;8.840;2023-02-03T01:22:56;4.80;;;0.40;;
69529;SDS011;56727;47.188;8.840;2023-02-03T01:25:22;5.90;;;0.40;;
69529;SDS011;56727;47.188;8.840;2023-02-03T01:27:49;3.80;;;0.40;;
69529;SDS011;56727;47.188;8.840;2023-02-03T01:30:16;4.70;;;0.40;;
69529;SDS011;56727;47.188;8.840;2023-02-03T01:32:43;3.00;;;0.50;;
69529;SDS011;56727;47.188;8.840;2023-02-03T01:35:10;3.90;;;0.40;;
69529;SDS011;56727;47.188;8.840;2023-02-03T01:37:36;5.30;;;0.50;;
69529;SDS011;56727;47.188;8.840;2023-02-03T01:40:03;2.80;;;0.30;;
69529;SDS011;56727;47.188;8.840;2023-02-03T01:42:32;3.70;;;0.50;;
69529;SDS011;56727;47.188;8.840;2023-02-03T01:44:59;6.50;;;0.50;;
69529;SDS011;56727;47.188;8.840;2023-02-03T01:47:38;4.70;;;0.40;;
69529;SDS011;56727;47.188;8.840;2023-02-03T01:50:23;5.10;;;0.40;;
69529;SDS011;56727;47.188;8.840;2023-02-03T01:52:58;4.30;;;0.50;;
69529;SDS011;56727;47.188;8.840;2023-02-03T01:55:37;4.90;;;0.50;;
69529;SDS011;56727;47.188;8.840;2023-02-03T01:58:15;4.10;;;0.40;;
69529;SDS011;56727;47.188;8.840;2023-02-03T02:00:51;4.20;;;0.50;;
69529;SDS011;56727;47.188;8.840;2023-02-03T02:03:22;6.60;;;0.60;;
69529;SDS011;56727;47.188;8.840;2023-02-03T02:06:01;3.20;;;0.40;;
69529;SDS011;56727;47.188;8.840;2023-02-03T02:08:30;3.80;;;0.70;;
69529;SDS011;56727;47.188;8.840;2023-02-03T02:10:58;5.20;;;0.50;;
69529;SDS011;56727;47.188;8.840;2023-02-03T02:13:29;4.30;;;0.40;;
69529;SDS011;56727;47.188;8.840;2023-02-03T02:38:31;7.70;;;0.40;;
69529;SDS011;56727;47.188;8.840;2023-02-03T02:41:41;2.90;;;0.40;;
69529;SDS011;56727;47.188;8.840;2023-02-03T02:44:40;3.60;;;0.30;;
69529;SDS011;56727;47.188;8.840;2023-02-03T02:47:21;4.50;;;0.50;;
69529;SDS011;56727;47.188;8.840;2023-02-03T02:50:04;3.20;;;0.40;;
69529;SDS011;56727;47.188;8.840;2023-02-03T02:52:37;5.00;;;0.50;;
69529;SDS011;56727;47.188;8.840;2023-02-03T02:55:14;3.10;;;0.60;;
69529;SDS011;56727;47.188;8.840;2023-02-03T02:57:46;5.00;;;0.40;;
69529;SDS011;56727;47.188;8.840;2023-02-03T03:00:14;3.40;;;0.40;;
69529;SDS011;56727;47.188;8.840;2023-02-03T03:02:43;5.20;;;0.50;;
69529;SDS011;56727;47.188;8.840;2023-02-03T03:05:10;5.00;;;0.60;;
69529;SDS011;56727;47.188;8.840;2023-02-03T03:07:47;3.70;;;0.30;;
69529;SDS011;56727;47.188;8.840;2023-02-03T03:10:21;3.50;;;0.80;;
69529;SDS011;56727;47.188;8.840;2023-02-03T03:12:56;2.80;;;0.50;;
69529;SDS011;56727;47.188;8.840;2023-02-03T03:15:28;2.90;;;0.30;;
69529;SDS011;56727;47.188;8.840;2023-02-03T03:18:12;4.00;;;0.40;;
69529;SDS011;56727;47.188;8.840;2023-02-03T03:20:46;3.70;;;0.50;;
69529;SDS011;56727;47.188;8.840;2023-02-03T03:23:23;3.00;;;0.40;;
69529;SDS011;56727;47.188;8.840;2023-02-03T03:26:06;3.50;;;0.50;;
69529;SDS011;56727;47.188;8.840;2023-02-03T03:28:51;3.20;;;0.40;;
69529;SDS011;56727;47.188;8.840;2023-02-03T03:31:44;4.10;;;0.50;;
69529;SDS011;56727;47.188;8.840;2023-02-03T03:34:12;5.10;;;0.50;;
69529;SDS011;56727;47.188;8.840;2023-02-03T03:36:45;5.20;;;0.50;;
69529;SDS011;56727;47.188;8.840;2023-02-03T03:39:33;5.10;;;0.60;;
69529;SDS011;56727;47.188;8.840;2023-02-03T03:42:37;3.90;;;0.40;;
69529;SDS011;56727;47.188;8.840;2023-02-03T03:45:23;2.50;;;0.40;;
69529;SDS011;56727;47.188;8.840;2023-02-03T03:48:02;2.60;;;0.50;;
69529;SDS011;56727;47.188;8.840;2023-02-03T03:50:46;3.80;;;0.40;;
69529;SDS011;56727;47.188;8.840;2023-02-03T03:53:17;3.80;;;0.40;;
69529;SDS011;56727;47.188;8.840;2023-02-03T03:55:49;4.60;;;0.50;;
69529;SDS011;56727;47.188;8.840;2023-02-03T03:58:28;4.10;;;0.40;;
69529;SDS011;56727;47.188;8.840;2023-02-03T04:01:01;5.40;;;0.50;;
69529;SDS011;56727;47.188;8.840;2023-02-03T04:03:36;2.20;;;0.30;;
69529;SDS011;56727;47.188;8.840;2023-02-03T04:06:06;3.90;;;0.40;;
69529;SDS011;56727;47.188;8.840;2023-02-03T04:08:32;4.30;;;0.50;;
69529;SDS011;56727;47.188;8.840;2023-02-03T04:10:59;3.00;;;0.40;;
69529;SDS011;56727;47.188;8.840;2023-02-03T04:13:26;4.20;;;0.50;;
69529;SDS011;56727;47.188;8.840;2023-02-03T04:15:52;4.70;;;0.50;;
69529;SDS011;56727;47.188;8.840;2023-02-03T04:18:18;6.70;;;0.50;;
69529;SDS011;56727;47.188;8.840;2023-02-03T04:20:45;2.90;;;0.40;;
69529;SDS011;56727;47.188;8.840;2023-02-03T04:23:12;5.00;;;0.70;;
69529;SDS011;56727;47.188;8.840;2023-02-03T04:25:38;5.30;;;0.30;;
69529;SDS011;56727;47.188;8.840;2023-02-03T04:28:05;5.30;;;0.40;;
69529;SDS011;56727;47.188;8.840;2023-02-03T04:30:32;2.40;;;0.50;;
69529;SDS011;56727;47.188;8.840;2023-02-03T04:32:58;3.60;;;0.40;;
69529;SDS011;56727;47.188;8.840;2023-02-03T04:35:25;3.90;;;0.30;;
69529;SDS011;56727;47.188;8.840;2023-02-03T04:37:52;4.90;;;0.70;;
69529;SDS011;56727;47.188;8.840;2023-02-03T04:40:18;3.20;;;0.30;;
69529;SDS011;56727;47.188;8.840;2023-02-03T04:42:45;4.30;;;0.40;;
69529;SDS011;56727;47.188;8.840;2023-02-03T04:45:11;3.20;;;0.40;;
69529;SDS011;56727;47.188;8.840;2023-02-03T04:47:38;6.60;;;0.40;;
69529;SDS011;56727;47.188;8.840;2023-02-03T04:50:06;3.40;;;0.40;;
69529;SDS011;56727;47.188;8.840;2023-02-03T04:52:33;3.20;;;0.50;;
69529;SDS011;56727;47.188;8.840;2023-02-03T04:54:59;3.20;;;0.40;;
69529;SDS011;56727;47.188;8.840;2023-02-03T04:57:26;4.10;;;0.40;;
69529;SDS011;56727;47.188;8.840;2023-02-03T04:59:52;2.20;;;0.40;;
69529;SDS011;56727;47.188;8.840;2023-02-03T05:02:19;3.70;;;0.60;;
69529;SDS011;56727;47.188;8.840;2023-02-03T05:04:46;7.60;;;0.70;;
69529;SDS011;56727;47.188;8.840;2023-02-03T05:07:12;4.20;;;0.60;;
69529;SDS011;56727;47.188;8.840;2023-02-03T05:09:39;5.20;;;0.60;;
69529;SDS011;56727;47.188;8.840;2023-02-03T05:12:05;4.20;;;0.70;;
69529;SDS011;56727;47.188;8.840;2023-02-03T05:14:32;4.10;;;0.50;;
69529;SDS011;56727;47.188;8.840;2023-02-03T05:16:58;5.20;;;0.50;;
69529;SDS011;56727;47.188;8.840;2023-02-03T05:19:25;5.30;;;0.60;;
69529;SDS011;56727;47.188;8.840;2023-02-03T05:21:51;5.20;;;0.90;;
69529;SDS011;56727;47.188;8.840;2023-02-03T05:24:18;5.90;;;0.80;;
69529;SDS011;56727;47.188;8.840;2023-02-03T05:26:44;5.80;;;1.30;;
69529;SDS011;56727;47.188;8.840;2023-02-03T05:29:11;8.10;;;1.20;;
69529;SDS011;56727;47.188;8.840;2023-02-03T05:31:38;5.40;;;0.80;;
69529;SDS011;56727;47.188;8.840;2023-02-03T05:34:04;7.80;;;0.90;;
69529;SDS011;56727;47.188;8.840;2023-02-03T05:36:31;5.50;;;0.60;;
69529;SDS011;56727;47.188;8.840;2023-02-03T05:38:57;9.10;;;0.60;;
69529;SDS011;56727;47.188;8.840;2023-02-03T05:41:24;8.20;;;0.80;;
69529;SDS011;56727;47.188;8.840;2023-02-03T05:44:10;5.10;;;0.50;;
69529;SDS011;56727;47.188;8.840;2023-02-03T05:46:36;4.60;;;0.80;;
69529;SDS011;56727;47.188;8.840;2023-02-03T05:49:03;6.80;;;1.00;;
69529;SDS011;56727;47.188;8.840;2023-02-03T05:51:29;6.10;;;1.00;;
69529;SDS011;56727;47.188;8.840;2023-02-03T05:53:56;6.40;;;0.90;;
69529;SDS011;56727;47.188;8.840;2023-02-03T05:56:22;5.90;;;0.80;;
69529;SDS011;56727;47.188;8.840;2023-02-03T05:58:49;6.00;;;0.70;;
69529;SDS011;56727;47.188;8.840;2023-02-03T06:01:18;5.70;;;0.70;;
69529;SDS011;56727;47.188;8.840;2023-02-03T06:03:45;5.80;;;0.90;;
69529;SDS011;56727;47.188;8.840;2023-02-03T06:06:12;6.00;;;0.80;;
69529;SDS011;56727;47.188;8.840;2023-02-03T06:08:39;7.20;;;0.90;;
69529;SDS011;56727;47.188;8.840;2023-02-03T06:11:06;6.60;;;0.70;;
69529;SDS011;56727;47.188;8.840;2023-02-03T06:13:32;6.90;;;0.80;;
69529;SDS011;56727;47.188;8.840;2023-02-03T06:15:59;6.30;;;0.70;;
69529;SDS011;56727;47.188;8.840;2023-02-03T06:18:25;6.70;;;1.00;;
69529;SDS011;56727;47.188;8.840;2023-02-03T06:20:52;9.20;;;1.20;;
69529;SDS011;56727;47.188;8.840;2023-02-03T06:23:19;8.20;;;0.80;;
69529;SDS011;56727;47.188;8.840;2023-02-03T06:25:49;6.50;;;0.80;;
69529;SDS011;56727;47.188;8.840;2023-02-03T06:28:17;3.70;;;0.40;;
69529;SDS011;56727;47.188;8.840;2023-02-03T06:33:40;4.30;;;0.80;;
69529;SDS011;56727;47.188;8.840;2023-02-03T06:36:07;4.30;;;0.90;;
69529;SDS011;56727;47.188;8.840;2023-02-03T06:38:34;6.50;;;0.70;;
69529;SDS011;56727;47.188;8.840;2023-02-03T06:41:01;5.80;;;0.80;;
69529;SDS011;56727;47.188;8.840;2023-02-03T06:43:27;6.80;;;0.90;;
69529;SDS011;56727;47.188;8.840;2023-02-03T06:45:54;7.80;;;0.80;;
69529;SDS011;56727;47.188;8.840;2023-02-03T06:48:21;6.90;;;1.10;;
69529;SDS011;56727;47.188;8.840;2023-02-03T06:50:48;8.50;;;1.20;;
69529;SDS011;56727;47.188;8.840;2023-02-03T06:53:14;8.80;;;1.40;;
69529;SDS011;56727;47.188;8.840;2023-02-03T06:55:41;9.20;;;2.00;;
69529;SDS011;56727;47.188;8.840;2023-02-03T06:58:07;9.60;;;1.90;;
69529;SDS011;56727;47.188;8.840;2023-02-03T07:00:34;9.20;;;1.50;;
69529;SDS011;56727;47.188;8.840;2023-02-03T07:03:01;7.30;;;1.30;;
69529;SDS011;56727;47.188;8.840;2023-02-03T07:05:28;5.20;;;0.80;;
69529;SDS011;56727;47.188;8.840;2023-02-03T07:07:55;6.00;;;0.90;;
69529;SDS011;56727;47.188;8.840;2023-02-03T07:10:22;7.90;;;1.10;;
69529;SDS011;56727;47.188;8.840;2023-02-03T07:12:50;5.70;;;1.10;;
69529;SDS011;56727;47.188;8.840;2023-02-03T07:15:18;7.50;;;1.30;;
69529;SDS011;56727;47.188;8.840;2023-02-03T07:17:46;7.70;;;1.40;;
69529;SDS011;56727;47.188;8.840;2023-02-03T07:20:20;9.80;;;2.20;;
69529;SDS011;56727;47.188;8.840;2023-02-03T07:22:56;8.20;;;1.60;;
69529;SDS011;56727;47.188;8.840;2023-02-03T07:25:24;9.90;;;1.60;;
69529;SDS011;56727;47.188;8.840;2023-02-03T07:27:52;9.00;;;1.60;;
69529;SDS011;56727;47.188;8.840;2023-02-03T07:30:19;5.80;;;1.30;;
69529;SDS011;56727;47.188;8.840;2023-02-03T07:32:50;5.90;;;1.60;;
69529;SDS011;56727;47.188;8.840;2023-02-03T07:35:18;9.90;;;1.30;;
69529;SDS011;56727;47.188;8.840;2023-02-03T07:37:45;9.80;;;1.90;;
69529;SDS011;56727;47.188;8.840;2023-02-03T07:40:12;6.40;;;1.20;;
69529;SDS011;56727;47.188;8.840;2023-02-03T07:42:44;7.20;;;1.30;;
69529;SDS011;56727;47.188;8.840;2023-02-03T07:45:13;8.90;;;1.30;;
69529;SDS011;56727;47.188;8.840;2023-02-03T07:47:42;5.40;;;0.90;;
69529;SDS011;56727;47.188;8.840;2023-02-03T07:50:10;6.30;;;1.20;;
69529;SDS011;56727;47.188;8.840;2023-02-03T07:52:37;4.60;;;0.80;;
69529;SDS011;56727;47.188;8.840;2023-02-03T07:55:04;6.20;;;1.10;;
69529;SDS011;56727;47.188;8.840;2023-02-03T07:57:32;5.00;;;0.80;;
69529;SDS011;56727;47.188;8.840;2023-02-03T07:59:58;6.70;;;1.40;;
69529;SDS011;56727;47.188;8.840;2023-02-03T08:02:25;8.40;;;1.10;;
69529;SDS011;56727;47.188;8.840;2023-02-03T08:04:51;4.80;;;1.10;;
69529;SDS011;56727;47.188;8.840;2023-02-03T08:07:18;4.80;;;1.10;;
69529;SDS011;56727;47.188;8.840;2023-02-03T08:09:44;6.50;;;1.70;;
69529;SDS011;56727;47.188;8.840;2023-02-03T08:12:11;8.70;;;1.40;;
69529;SDS011;56727;47.188;8.840;2023-02-03T08:14:37;11.10;;;1.50;;
69529;SDS011;56727;47.188;8.840;2023-02-03T08:17:04;14.40;;;1.30;;
69529;SDS011;56727;47.188;8.840;2023-02-03T08:19:31;8.10;;;1.10;;
69529;SDS011;56727;47.188;8.840;2023-02-03T08:21:57;9.10;;;1.60;;
69529;SDS011;56727;47.188;8.840;2023-02-03T08:24:24;7.10;;;1.60;;
69529;SDS011;56727;47.188;8.840;2023-02-03T08:26:51;8.70;;;1.20;;
69529;SDS011;56727;47.188;8.840;2023-02-03T08:29:19;6.40;;;1.10;;
69529;SDS011;56727;47.188;8.840;2023-02-03T08:31:46;10.70;;;1.60;;
69529;SDS011;56727;47.188;8.840;2023-02-03T08:34:13;6.20;;;0.90;;
69529;SDS011;56727;47.188;8.840;2023-02-03T08:36:39;7.90;;;1.00;;
69529;SDS011;56727;47.188;8.840;2023-02-03T08:39:06;5.00;;;0.90;;
69529;SDS011;56727;47.188;8.840;2023-02-03T08:41:32;7.60;;;1.10;;
69529;SDS011;56727;47.188;8.840;2023-02-03T08:44:00;6.40;;;1.40;;
69529;SDS011;56727;47.188;8.840;2023-02-03T08:46:27;8.80;;;1.40;;
69529;SDS011;56727;47.188;8.840;2023-02-03T08:48:53;9.20;;;1.40;;
69529;SDS011;56727;47.188;8.840;2023-02-03T08:51:21;7.90;;;1.30;;
69529;SDS011;56727;47.188;8.840;2023-02-03T08:53:49;5.10;;;1.20;;
69529;SDS011;56727;47.188;8.840;2023-02-03T08:56:16;7.70;;;1.70;;
69529;SDS011;56727;47.188;8.840;2023-02-03T08:58:43;5.70;;;1.70;;
69529;SDS011;56727;47.188;8.840;2023-02-03T09:01:13;6.10;;;1.30;;
69529;SDS011;56727;47.188;8.840;2023-02-03T09:03:41;6.50;;;1.20;;
69529;SDS011;56727;47.188;8.840;2023-02-03T09:06:08;11.20;;;1.30;;
69529;SDS011;56727;47.188;8.840;2023-02-03T09:08:38;9.90;;;1.60;;
69529;SDS011;56727;47.188;8.840;2023-02-03T09:11:10;5.60;;;1.20;;
69529;SDS011;56727;47.188;8.840;2023-02-03T09:13:40;5.90;;;1.00;;
69529;SDS011;56727;47.188;8.840;2023-02-03T09:16:12;4.10;;;0.90;;
69529;SDS011;56727;47.188;8.840;2023-02-03T09:18:39;6.90;;;0.80;;
69529;SDS011;56727;47.188;8.840;2023-02-03T09:21:07;4.90;;;0.80;;
69529;SDS011;56727;47.188;8.840;2023-02-03T09:23:37;2.70;;;0.40;;
69529;SDS011;56727;47.188;8.840;2023-02-03T09:26:07;2.40;;;0.30;;
69529;SDS011;56727;47.188;8.840;2023-02-03T09:28:35;6.70;;;0.60;;
69529;SDS011;56727;47.188;8.840;2023-02-03T09:31:08;2.40;;;0.30;;
69529;SDS011;56727;47.188;8.840;2023-02-03T09:33:37;2.80;;;0.40;;
69529;SDS011;56727;47.188;8.840;2023-02-03T09:36:04;2.20;;;0.30;;
69529;SDS011;56727;47.188;8.840;2023-02-03T09:38:33;2.40;;;0.20;;
69529;SDS011;56727;47.188;8.840;2023-02-03T09:41:06;3.70;;;0.30;;
69529;SDS011;56727;47.188;8.840;2023-02-03T09:43:57;1.90;;;0.20;;
69529;SDS011;56727;47.188;8.840;2023-02-03T09:46:58;3.30;;;0.30;;
69529;SDS011;56727;47.188;8.840;2023-02-03T09:49:52;5.00;;;0.90;;
69529;SDS011;56727;47.188;8.840;2023-02-03T09:52:24;3.80;;;0.80;;
69529;SDS011;56727;47.188;8.840;2023-02-03T09:55:17;5.00;;;0.90;;
69529;SDS011;56727;47.188;8.840;2023-02-03T09:58:16;3.90;;;0.70;;
69529;SDS011;56727;47.188;8.840;2023-02-03T10:00:57;5.60;;;0.70;;
69529;SDS011;56727;47.188;8.840;2023-02-03T10:06:41;3.70;;;0.50;;
69529;SDS011;56727;47.188;8.840;2023-02-03T10:09:43;2.50;;;0.40;;
69529;SDS011;56727;47.188;8.840;2023-02-03T10:13:19;2.70;;;0.40;;
69529;SDS011;56727;47.188;8.840;2023-02-03T10:16:03;3.30;;;0.60;;
69529;SDS011;56727;47.188;8.840;2023-02-03T10:18:45;2.30;;;0.30;;
69529;SDS011;56727;47.188;8.840;2023-02-03T10:21:20;1.40;;;0.30;;
69529;SDS011;56727;47.188;8.840;2023-02-03T10:23:58;1.80;;;0.30;;
69529;SDS011;56727;47.188;8.840;2023-02-03T10:26:27;2.20;;;0.40;;
69529;SDS011;56727;47.188;8.840;2023-02-03T10:28:57;5.10;;;0.50;;
69529;SDS011;56727;47.188;8.840;2023-02-03T10:31:34;3.20;;;0.40;;
69529;SDS011;56727;47.188;8.840;2023-02-03T10:34:13;4.30;;;0.60;;
69529;SDS011;56727;47.188;8.840;2023-02-03T10:40:12;2.80;;;0.30;;
69529;SDS011;56727;47.188;8.840;2023-02-03T10:42:42;3.00;;;0.30;;
69529;SDS011;56727;47.188;8.840;2023-02-03T10:45:33;2.10;;;0.30;;
69529;SDS011;56727;47.188;8.840;2023-02-03T10:48:04;3.50;;;0.40;;
69529;SDS011;56727;47.188;8.840;2023-02-03T10:50:37;3.40;;;0.30;;
69529;SDS011;56727;47.188;8.840;2023-02-03T10:53:31;3.20;;;0.40;;
69529;SDS011;56727;47.188;8.840;2023-02-03T10:56:04;1.70;;;0.30;;
69529;SDS011;56727;47.188;8.840;2023-02-03T10:58:36;3.10;;;0.30;;
69529;SDS011;56727;47.188;8.840;2023-02-03T11:01:11;2.20;;;0.40;;
69529;SDS011;56727;47.188;8.840;2023-02-03T11:03:44;4.10;;;0.30;;
69529;SDS011;56727;47.188;8.840;2023-02-03T11:06:30;8.70;;;0.40;;
69529;SDS011;56727;47.188;8.840;2023-02-03T11:08:58;2.80;;;0.30;;
69529;SDS011;56727;47.188;8.840;2023-02-03T11:11:30;8.20;;;0.20;;
69529;SDS011;56727;47.188;8.840;2023-02-03T11:14:19;3.30;;;0.20;;
69529;SDS011;56727;47.188;8.840;2023-02-03T11:16:46;2.70;;;0.30;;
69529;SDS011;56727;47.188;8.840;2023-02-03T11:19:19;5.20;;;0.50;;
69529;SDS011;56727;47.188;8.840;2023-02-03T11:21:49;1.90;;;0.20;;
69529;SDS011;56727;47.188;8.840;2023-02-03T11:24:39;1.10;;;0.20;;
69529;SDS011;56727;47.188;8.840;2023-02-03T11:27:14;4.80;;;0.30;;
69529;SDS011;56727;47.188;8.840;2023-02-03T11:29:48;1.40;;;0.20;;
69529;SDS011;56727;47.188;8.840;2023-02-03T11:32:20;2.30;;;0.30;;
69529;SDS011;56727;47.188;8.840;2023-02-03T11:35:25;2.70;;;0.40;;
69529;SDS011;56727;47.188;8.840;2023-02-03T11:37:56;3.30;;;0.30;;
69529;SDS011;56727;47.188;8.840;2023-02-03T11:40:33;2.40;;;0.30;;
69529;SDS011;56727;47.188;8.840;2023-02-03T11:43:14;2.90;;;0.30;;
69529;SDS011;56727;47.188;8.840;2023-02-03T11:45:46;2.20;;;0.30;;
69529;SDS011;56727;47.188;8.840;2023-02-03T11:48:31;3.20;;;0.40;;
69529;SDS011;56727;47.188;8.840;2023-02-03T11:54:43;3.80;;;0.30;;
69529;SDS011;56727;47.188;8.840;2023-02-03T11:58:24;3.00;;;0.30;;
69529;SDS011;56727;47.188;8.840;2023-02-03T12:01:12;4.20;;;0.40;;
69529;SDS011;56727;47.188;8.840;2023-02-03T12:04:15;3.50;;;0.40;;
69529;SDS011;56727;47.188;8.840;2023-02-03T12:07:47;4.90;;;0.50;;
69529;SDS011;56727;47.188;8.840;2023-02-03T12:12:16;4.30;;;0.70;;
69529;SDS011;56727;47.188;8.840;2023-02-03T12:34:32;6.60;;;0.60;;
69529;SDS011;56727;47.188;8.840;2023-02-03T12:37:21;4.30;;;0.40;;
69529;SDS011;56727;47.188;8.840;2023-02-03T12:39:54;7.70;;;0.40;;
69529;SDS011;56727;47.188;8.840;2023-02-03T12:42:38;6.10;;;0.50;;
69529;SDS011;56727;47.188;8.840;2023-02-03T12:45:17;3.70;;;0.30;;
69529;SDS011;56727;47.188;8.840;2023-02-03T12:48:03;2.50;;;0.30;;
69529;SDS011;56727;47.188;8.840;2023-02-03T12:50:51;3.90;;;0.30;;
69529;SDS011;56727;47.188;8.840;2023-02-03T12:53:26;2.30;;;0.30;;
69529;SDS011;56727;47.188;8.840;2023-02-03T12:56:12;2.80;;;0.50;;
69529;SDS011;56727;47.188;8.840;2023-02-03T12:58:47;2.80;;;0.40;;
69529;SDS011;56727;47.188;8.840;2023-02-03T13:01:33;2.80;;;0.40;;
69529;SDS011;56727;47.188;8.840;2023-02-03T13:04:23;2.50;;;0.40;;
69529;SDS011;56727;47.188;8.840;2023-02-03T13:07:22;3.80;;;0.40;;
69529;SDS011;56727;47.188;8.840;2023-02-03T13:10:02;3.40;;;0.30;;
69529;SDS011;56727;47.188;8.840;2023-02-03T13:12:52;3.50;;;0.30;;
69529;SDS011;56727;47.188;8.840;2023-02-03T13:15:29;3.60;;;0.40;;
69529;SDS011;56727;47.188;8.840;2023-02-03T13:18:27;5.60;;;0.40;;
69529;SDS011;56727;47.188;8.840;2023-02-03T13:20:58;6.40;;;0.50;;
69529;SDS011;56727;47.188;8.840;2023-02-03T13:23:25;1.50;;;0.30;;
69529;SDS011;56727;47.188;8.840;2023-02-03T13:26:16;3.60;;;0.40;;
69529;SDS011;56727;47.188;8.840;2023-02-03T13:29:57;3.30;;;0.40;;
69529;SDS011;56727;47.188;8.840;2023-02-03T13:32:59;4.10;;;0.40;;
69529;SDS011;56727;47.188;8.840;2023-02-03T13:36:32;3.90;;;0.50;;
69529;SDS011;56727;47.188;8.840;2023-02-03T13:39:45;2.20;;;0.40;;
69529;SDS011;56727;47.188;8.840;2023-02-03T13:42:32;3.20;;;0.50;;
69529;SDS011;56727;47.188;8.840;2023-02-03T13:45:21;2.40;;;0.50;;
69529;SDS011;56727;47.188;8.840;2023-02-03T13:48:28;3.90;;;0.40;;
69529;SDS011;56727;47.188;8.840;2023-02-03T13:51:19;3.40;;;0.50;;
69529;SDS011;56727;47.188;8.840;2023-02-03T13:53:51;5.00;;;0.40;;
69529;SDS011;56727;47.188;8.840;2023-02-03T13:56:26;4.20;;;0.50;;
69529;SDS011;56727;47.188;8.840;2023-02-03T13:59:27;3.60;;;0.40;;
69529;SDS011;56727;47.188;8.840;2023-02-03T14:02:44;4.40;;;0.50;;
69529;SDS011;56727;47.188;8.840;2023-02-03T14:05:39;3.60;;;0.50;;
69529;SDS011;56727;47.188;8.840;2023-02-03T14:08:47;3.30;;;0.50;;
69529;SDS011;56727;47.188;8.840;2023-02-03T14:18:03;4.60;;;0.40;;
69529;SDS011;56727;47.188;8.840;2023-02-03T14:20:42;6.20;;;0.50;;
69529;SDS011;56727;47.188;8.840;2023-02-03T14:23:32;5.70;;;0.50;;
69529;SDS011;56727;47.188;8.840;2023-02-03T14:26:03;3.80;;;0.50;;
69529;SDS011;56727;47.188;8.840;2023-02-03T14:28:39;3.10;;;0.50;;
69529;SDS011;56727;47.188;8.840;2023-02-03T14:31:17;3.40;;;0.40;;
69529;SDS011;56727;47.188;8.840;2023-02-03T14:34:09;3.70;;;0.50;;
69529;SDS011;56727;47.188;8.840;2023-02-03T14:36:48;4.10;;;0.50;;
69529;SDS011;56727;47.188;8.840;2023-02-03T14:40:02;1.80;;;0.30;;
69529;SDS011;56727;47.188;8.840;2023-02-03T14:43:15;4.50;;;0.70;;
69529;SDS011;56727;47.188;8.840;2023-02-03T14:46:24;3.60;;;0.40;;
69529;SDS011;56727;47.188;8.840;2023-02-03T14:49:17;3.40;;;0.60;;
69529;SDS011;56727;47.188;8.840;2023-02-03T14:52:23;3.60;;;0.40;;
69529;SDS011;56727;47.188;8.840;2023-02-03T14:58:44;5.50;;;0.50;;
69529;SDS011;56727;47.188;8.840;2023-02-03T15:04:36;7.10;;;0.60;;
69529;SDS011;56727;47.188;8.840;2023-02-03T15:07:02;5.60;;;0.60;;
69529;SDS011;56727;47.188;8.840;2023-02-03T15:09:41;7.30;;;0.60;;
69529;SDS011;56727;47.188;8.840;2023-02-03T15:12:19;2.90;;;0.50;;
69529;SDS011;56727;47.188;8.840;2023-02-03T15:14:49;5.10;;;0.60;;
69529;SDS011;56727;47.188;8.840;2023-02-03T15:17:25;3.00;;;0.60;;
69529;SDS011;56727;47.188;8.840;2023-02-03T15:19:53;4.30;;;0.50;;
69529;SDS011;56727;47.188;8.840;2023-02-03T15:22:28;4.40;;;0.50;;
69529;SDS011;56727;47.188;8.840;2023-02-03T15:24:58;3.10;;;0.50;;
69529;SDS011;56727;47.188;8.840;2023-02-03T15:27:28;6.70;;;0.60;;
69529;SDS011;56727;47.188;8.840;2023-02-03T15:29:57;5.90;;;0.70;;
69529;SDS011;56727;47.188;8.840;2023-02-03T15:32:29;6.60;;;0.70;;
69529;SDS011;56727;47.188;8.840;2023-02-03T15:35:02;3.90;;;0.50;;
69529;SDS011;56727;47.188;8.840;2023-02-03T15:37:55;3.90;;;0.60;;
69529;SDS011;56727;47.188;8.840;2023-02-03T15:40:52;6.40;;;0.50;;
69529;SDS011;56727;47.188;8.840;2023-02-03T15:43:38;4.90;;;0.50;;
69529;SDS011;56727;47.188;8.840;2023-02-03T15:46:24;3.80;;;0.60;;
69529;SDS011;56727;47.188;8.840;2023-02-03T15:49:10;6.10;;;0.80;;
69529;SDS011;56727;47.188;8.840;2023-02-03T15:51:57;3.20;;;0.90;;
69529;SDS011;56727;47.188;8.840;2023-02-03T15:54:31;2.40;;;0.30;;
69529;SDS011;56727;47.188;8.840;2023-02-03T15:57:18;3.30;;;0.40;;
69529;SDS011;56727;47.188;8.840;2023-02-03T16:00:01;3.00;;;0.50;;
69529;SDS011;56727;47.188;8.840;2023-02-03T16:02:52;3.30;;;0.60;;
69529;SDS011;56727;47.188;8.840;2023-02-03T16:05:24;4.40;;;0.60;;
69529;SDS011;56727;47.188;8.840;2023-02-03T16:07:54;2.90;;;0.40;;
69529;SDS011;56727;47.188;8.840;2023-02-03T16:10:32;3.90;;;0.50;;
69529;SDS011;56727;47.188;8.840;2023-02-03T16:13:18;2.70;;;0.50;;
69529;SDS011;56727;47.188;8.840;2023-02-03T16:16:21;5.30;;;0.50;;
69529;SDS011;56727;47.188;8.840;2023-02-03T16:19:00;2.90;;;0.40;;
69529;SDS011;56727;47.188;8.840;2023-02-03T16:21:35;4.30;;;0.60;;
69529;SDS011;56727;47.188;8.840;2023-02-03T16:24:42;3.20;;;0.60;;
69529;SDS011;56727;47.188;8.840;2023-02-03T16:34:12;5.70;;;1.00;;
69529;SDS011;56727;47.188;8.840;2023-02-03T16:37:23;2.20;;;0.50;;
69529;SDS011;56727;47.188;8.840;2023-02-03T16:40:21;3.30;;;0.70;;
69529;SDS011;56727;47.188;8.840;2023-02-03T16:43:12;5.70;;;0.80;;
69529;SDS011;56727;47.188;8.840;2023-02-03T16:45:59;5.20;;;0.70;;
69529;SDS011;56727;47.188;8.840;2023-02-03T16:48:45;5.10;;;0.90;;
69529;SDS011;56727;47.188;8.840;2023-02-03T16:51:39;5.40;;;0.90;;
69529;SDS011;56727;47.188;8.840;2023-02-03T16:54:11;3.80;;;0.70;;
69529;SDS011;56727;47.188;8.840;2023-02-03T16:56:40;4.60;;;0.80;;